Time;durP1;ratioP1;P1;durP2;ratioP2;P2;SDS_P1;SDS_P2;PMS_P1;PMS_P2;Temp;Humidity;BMP_temperature;BMP_pressure;BME280_temperature;BME280_humidity;BME280_pressure;Samples;Min_cycle;Max_cycle;Signal;HPM_P1;HPM_P2
2022/01/21 00:00:45;;;;;;;6.47;2.85;;;2.20;92.40;;;;;;6277046;28;20494;-80
2022/01/21 00:03:47;;;;;;;9.95;3.00;;;2.30;92.80;;;;;;6278635;28;20502;-79
2022/01/21 00:06:49;;;;;;;11.60;3.95;;;2.40;92.50;;;;;;6278376;28;20069;-80
2022/01/21 00:09:51;;;;;;;9.60;3.17;;;2.40;93.00;;;;;;6278233;28;20071;-80
2022/01/21 00:12:53;;;;;;;19.67;3.33;;;2.50;92.70;;;;;;6277577;28;20051;-79
2022/01/21 00:15:56;;;;;;;13.15;4.18;;;2.60;92.60;;;;;;6278080;28;20055;-80
2022/01/21 00:19:04;;;;;;;10.32;4.47;;;2.60;92.60;;;;;;6278968;28;20051;-80
2022/01/21 00:32:06;;;;;;;14.15;3.05;;;2.80;92.10;;;;;;6268235;28;20502;-80
2022/01/21 00:35:08;;;;;;;4.20;2.05;;;2.80;91.80;;;;;;6275443;28;20044;-80
2022/01/21 00:38:12;;;;;;;8.65;2.90;;;2.80;91.90;;;;;;6276186;28;20049;-80
2022/01/21 00:41:19;;;;;;;5.78;2.35;;;2.70;91.70;;;;;;6274961;28;20387;-80
2022/01/21 00:44:21;;;;;;;13.73;3.22;;;2.80;91.70;;;;;;6273852;28;20045;-80
2022/01/21 00:47:24;;;;;;;13.32;3.83;;;2.70;91.50;;;;;;6273286;28;20045;-80
2022/01/21 00:50:26;;;;;;;7.47;2.65;;;2.70;91.40;;;;;;6272456;28;20094;-80
2022/01/21 00:53:27;;;;;;;10.27;3.47;;;2.70;91.40;;;;;;6279360;28;20568;-81
2022/01/21 00:56:29;;;;;;;10.80;2.58;;;2.80;91.60;;;;;;6280985;28;20056;-81
2022/01/21 00:59:31;;;;;;;12.63;2.22;;;2.80;91.70;;;;;;6280807;28;20045;-81
2022/01/21 01:02:34;;;;;;;10.32;2.78;;;2.90;91.90;;;;;;6281309;28;20041;-81
2022/01/21 01:05:36;;;;;;;11.80;2.47;;;2.90;91.60;;;;;;6278972;28;20077;-81
2022/01/21 01:08:37;;;;;;;10.65;3.45;;;3.00;91.40;;;;;;6279764;28;20056;-81
2022/01/21 01:11:51;;;;;;;10.85;2.92;;;3.00;91.60;;;;;;6279724;28;20048;-81
2022/01/21 01:21:33;;;;;;;13.23;3.25;;;2.90;91.50;;;;;;6280104;28;20128;-81
2022/01/21 01:27:55;;;;;;;12.85;2.97;;;2.80;91.80;;;;;;6281073;28;20490;-81
2022/01/21 01:30:56;;;;;;;21.20;3.05;;;2.70;92.00;;;;;;6279769;28;20482;-81
2022/01/21 01:34:01;;;;;;;9.20;2.92;;;2.70;92.20;;;;;;6279465;28;20047;-81
2022/01/21 01:37:10;;;;;;;19.27;3.95;;;2.70;92.00;;;;;;6279352;28;20127;-81
2022/01/21 01:40:18;;;;;;;7.60;4.07;;;2.60;91.70;;;;;;6280287;28;20064;-81
2022/01/21 01:49:49;;;;;;;9.65;2.53;;;2.60;92.10;;;;;;6278944;28;20045;-80
2022/01/21 01:52:52;;;;;;;13.15;3.47;;;2.60;92.10;;;;;;6279634;28;20051;-80
2022/01/21 01:55:54;;;;;;;10.07;3.17;;;2.50;92.00;;;;;;6279154;28;20395;-80
2022/01/21 01:58:56;;;;;;;21.08;3.10;;;2.50;92.10;;;;;;6279895;28;20132;-80
2022/01/21 02:02:00;;;;;;;7.05;2.40;;;2.50;92.00;;;;;;6279720;28;20126;-80
2022/01/21 02:05:03;;;;;;;7.20;3.17;;;2.50;92.10;;;;;;6279966;28;20041;-81
2022/01/21 02:08:05;;;;;;;8.77;2.40;;;2.50;92.00;;;;;;6283072;28;20140;-81
2022/01/21 02:11:07;;;;;;;12.57;2.67;;;2.50;91.80;;;;;;6279093;28;20041;-80
2022/01/21 02:14:13;;;;;;;11.02;2.67;;;2.50;92.10;;;;;;6279687;28;20048;-81
2022/01/21 02:21:27;;;;;;;9.23;3.08;;;2.60;92.10;;;;;;6277564;28;20053;-81
2022/01/21 02:24:05;;;;;;;8.07;2.60;;;2.60;92.00;;;;;;6270561;28;20132;-81
2022/01/21 02:27:07;;;;;;;6.90;2.13;;;2.60;92.00;;;;;;6278359;28;20083;-81
2022/01/21 02:30:17;;;;;;;6.90;2.78;;;2.50;92.00;;;;;;6279586;28;20045;-81
2022/01/21 02:33:19;;;;;;;12.73;2.22;;;2.50;92.00;;;;;;6278687;28;20053;-81
2022/01/21 02:36:21;;;;;;;6.60;2.53;;;2.40;92.30;;;;;;6279473;28;20132;-80
2022/01/21 02:39:24;;;;;;;8.73;2.40;;;2.50;92.30;;;;;;6278151;28;20425;-81
2022/01/21 02:42:26;;;;;;;13.13;2.80;;;2.50;92.30;;;;;;6278992;28;20067;-80
2022/01/21 02:45:28;;;;;;;8.57;2.33;;;2.60;92.20;;;;;;6279699;28;20053;-81
2022/01/21 02:48:30;;;;;;;17.92;4.20;;;2.70;92.30;;;;;;6279643;28;20048;-81
2022/01/21 02:51:31;;;;;;;12.60;2.70;;;2.80;92.20;;;;;;6278948;28;20056;-81
2022/01/21 02:54:35;;;;;;;7.80;2.08;;;2.80;92.00;;;;;;6279042;28;20051;-80
2022/01/21 02:57:37;;;;;;;6.97;1.95;;;2.90;92.10;;;;;;6279096;28;20045;-81
2022/01/21 03:00:39;;;;;;;6.00;2.00;;;3.00;91.90;;;;;;6279281;28;20081;-81
2022/01/21 03:03:42;;;;;;;11.70;4.68;;;3.00;91.80;;;;;;6279763;28;20059;-81
2022/01/21 03:06:44;;;;;;;9.68;2.63;;;3.00;91.70;;;;;;6278490;28;20417;-81
2022/01/21 03:09:47;;;;;;;6.10;2.97;;;3.00;91.70;;;;;;6278850;28;20056;-81
2022/01/21 03:12:49;;;;;;;11.93;3.08;;;3.00;91.50;;;;;;6279073;28;20124;-81
2022/01/21 03:15:51;;;;;;;6.55;2.25;;;2.90;91.50;;;;;;6278524;28;20048;-81
2022/01/21 03:18:53;;;;;;;14.52;2.45;;;2.70;91.50;;;;;;6279484;28;20056;-80
2022/01/21 03:21:55;;;;;;;11.88;3.15;;;2.60;91.70;;;;;;6279153;28;20049;-80
2022/01/21 03:24:58;;;;;;;8.40;2.40;;;2.40;91.80;;;;;;6279054;28;20107;-81
2022/01/21 03:27:59;;;;;;;16.38;2.60;;;2.30;92.00;;;;;;6271880;28;20056;-80
2022/01/21 03:31:01;;;;;;;12.13;2.70;;;2.20;92.30;;;;;;6280077;28;20210;-81
2022/01/21 03:34:03;;;;;;;7.75;3.03;;;2.10;92.40;;;;;;6281804;28;20044;-81
2022/01/21 03:37:06;;;;;;;8.18;2.50;;;2.00;92.50;;;;;;6280315;28;20041;-80
2022/01/21 03:40:10;;;;;;;5.70;3.03;;;2.00;92.50;;;;;;6280746;28;20063;-80
2022/01/21 03:43:12;;;;;;;12.50;2.05;;;1.90;92.50;;;;;;6281810;28;20055;-81
2022/01/21 03:46:15;;;;;;;11.73;2.65;;;1.80;92.60;;;;;;6282459;28;20056;-80
2022/01/21 03:49:17;;;;;;;19.20;4.03;;;1.70;92.70;;;;;;6282731;28;20055;-81
2022/01/21 03:52:19;;;;;;;11.80;3.92;;;1.70;92.80;;;;;;6285612;28;20584;-81
2022/01/21 03:55:22;;;;;;;8.13;3.17;;;1.60;92.70;;;;;;6276638;28;20056;-81
2022/01/21 03:58:24;;;;;;;16.70;4.15;;;1.50;92.80;;;;;;6276808;28;20041;-81
2022/01/21 04:01:28;;;;;;;5.95;2.28;;;1.50;92.90;;;;;;6275953;28;20041;-81
2022/01/21 04:04:29;;;;;;;9.20;2.85;;;1.40;92.90;;;;;;6276275;28;20409;-80
2022/01/21 04:07:31;;;;;;;14.52;3.40;;;1.40;93.00;;;;;;6277680;28;20433;-81
2022/01/21 04:10:35;;;;;;;10.90;3.97;;;1.30;93.00;;;;;;6276046;28;20041;-81
2022/01/21 04:13:37;;;;;;;6.60;2.53;;;1.30;93.10;;;;;;6276346;28;20048;-81
2022/01/21 04:16:39;;;;;;;14.43;3.63;;;1.20;93.20;;;;;;6277598;28;20115;-81
2022/01/21 04:19:41;;;;;;;10.35;4.05;;;1.20;93.20;;;;;;6276562;28;20049;-81
2022/01/21 04:22:42;;;;;;;15.05;3.22;;;1.20;93.20;;;;;;6276819;28;20037;-81
2022/01/21 04:25:46;;;;;;;17.50;3.47;;;1.30;93.30;;;;;;6276804;28;20052;-81
2022/01/21 04:28:48;;;;;;;13.77;2.92;;;1.40;93.30;;;;;;6278968;28;20410;-80
2022/01/21 04:31:50;;;;;;;10.98;3.35;;;1.50;93.30;;;;;;6281912;28;20048;-81
2022/01/21 04:34:52;;;;;;;9.95;2.65;;;1.50;93.20;;;;;;6280525;28;20056;-81
2022/01/21 04:37:56;;;;;;;11.43;3.08;;;1.60;93.10;;;;;;6280957;28;20049;-80
2022/01/21 04:41:06;;;;;;;11.35;3.05;;;1.70;93.10;;;;;;6280155;28;20052;-81
2022/01/21 04:47:27;;;;;;;13.70;2.75;;;1.50;93.00;;;;;;6280922;28;20502;-80
2022/01/21 04:50:38;;;;;;;7.43;3.97;;;1.40;93.10;;;;;;6281447;28;20060;-81
2022/01/21 04:53:41;;;;;;;14.88;3.95;;;1.40;93.20;;;;;;6280618;28;20413;-81
2022/01/21 04:56:44;;;;;;;20.33;3.00;;;1.30;93.20;;;;;;6280302;28;20071;-81
2022/01/21 04:59:47;;;;;;;9.95;3.00;;;1.20;93.20;;;;;;6281151;28;20143;-80
2022/01/21 05:02:48;;;;;;;11.02;3.38;;;1.10;93.20;;;;;;6280263;28;20037;-81
2022/01/21 05:05:50;;;;;;;11.18;3.38;;;1.00;93.30;;;;;;6280045;28;20128;-80
2022/01/21 05:08:54;;;;;;;12.23;4.32;;;1.00;93.50;;;;;;6280869;28;20045;-81
2022/01/21 05:11:58;;;;;;;8.70;2.88;;;0.90;93.60;;;;;;6280325;28;20041;-81
2022/01/21 05:15:14;;;;;;;18.33;3.58;;;0.90;93.90;;;;;;6280435;28;20064;-81
2022/01/21 05:18:16;;;;;;;10.20;3.35;;;1.00;94.10;;;;;;6280599;28;20079;-81
2022/01/21 05:21:17;;;;;;;9.18;3.13;;;1.00;94.10;;;;;;6280599;28;20044;-81
2022/01/21 05:24:21;;;;;;;11.75;3.60;;;1.10;94.00;;;;;;6280216;28;20067;-81
2022/01/21 05:27:25;;;;;;;10.13;3.47;;;1.10;93.90;;;;;;6280524;28;20449;-81
2022/01/21 05:30:27;;;;;;;14.35;3.80;;;1.00;93.80;;;;;;6281056;28;20045;-80
2022/01/21 05:33:29;;;;;;;11.13;3.40;;;1.00;93.80;;;;;;6280294;28;20041;-81
2022/01/21 05:36:37;;;;;;;8.80;2.72;;;1.00;93.80;;;;;;6280255;28;20055;-81
2022/01/21 05:39:39;;;;;;;9.25;3.00;;;0.90;93.80;;;;;;6279414;28;20112;-81
2022/01/21 05:42:42;;;;;;;10.50;4.45;;;0.90;93.90;;;;;;6280263;28;20513;-81
2022/01/21 05:49:04;;;;;;;6.78;2.40;;;0.90;93.90;;;;;;6279269;28;20037;-81
2022/01/21 05:52:10;;;;;;;13.95;2.75;;;0.80;93.90;;;;;;6279328;28;20498;-81
2022/01/21 05:55:12;;;;;;;10.73;4.68;;;0.80;93.90;;;;;;6279640;28;20052;-81
2022/01/21 05:58:15;;;;;;;10.40;3.33;;;0.80;93.90;;;;;;6279594;28;20169;-81
2022/01/21 06:01:17;;;;;;;10.23;3.70;;;0.80;93.90;;;;;;6279782;28;20045;-81
2022/01/21 06:04:19;;;;;;;12.25;4.88;;;0.80;94.00;;;;;;6281268;28;20061;-81
2022/01/21 06:07:21;;;;;;;11.52;3.42;;;0.80;94.00;;;;;;6279355;28;20052;-81
2022/01/21 06:10:22;;;;;;;12.57;3.90;;;0.80;93.80;;;;;;6279194;28;20041;-81
2022/01/21 06:13:26;;;;;;;8.35;3.05;;;0.80;93.80;;;;;;6278605;28;20128;-81
2022/01/21 06:16:28;;;;;;;11.82;4.13;;;0.80;93.80;;;;;;6279065;28;20567;-81
2022/01/21 06:19:30;;;;;;;14.30;3.55;;;0.80;93.90;;;;;;6278916;28;20045;-81
2022/01/21 06:22:32;;;;;;;16.70;3.75;;;0.80;94.00;;;;;;6279062;28;20520;-81
2022/01/21 06:25:34;;;;;;;13.70;3.17;;;0.90;94.20;;;;;;6279408;28;20041;-81
2022/01/21 06:28:37;;;;;;;18.10;3.38;;;1.00;94.00;;;;;;6278798;28;20132;-80
2022/01/21 06:31:39;;;;;;;17.38;3.33;;;1.10;93.90;;;;;;6279106;28;20084;-80
2022/01/21 06:34:41;;;;;;;6.63;2.58;;;1.10;93.70;;;;;;6278375;28;20437;-81
2022/01/21 06:37:43;;;;;;;18.17;3.85;;;1.20;93.60;;;;;;6278886;28;20044;-81
2022/01/21 06:40:45;;;;;;;6.78;3.00;;;1.20;93.60;;;;;;6278136;28;20541;-80
2022/01/21 06:43:48;;;;;;;12.88;3.38;;;1.30;93.60;;;;;;6279518;28;20191;-81
2022/01/21 06:46:50;;;;;;;7.07;3.40;;;1.30;93.50;;;;;;6277870;28;20041;-81
2022/01/21 06:49:51;;;;;;;12.23;4.10;;;1.40;93.20;;;;;;6277211;28;20045;-80
2022/01/21 06:52:53;;;;;;;12.40;4.35;;;1.50;93.30;;;;;;6284688;23;20133;-85
2022/01/21 06:55:55;;;;;;;11.30;4.95;;;1.50;93.20;;;;;;6253366;28;20057;-86
2022/01/21 06:58:58;;;;;;;14.10;3.20;;;1.50;93.10;;;;;;6252782;28;20067;-84
2022/01/21 07:02:00;;;;;;;9.93;3.50;;;1.60;93.20;;;;;;6253304;28;20041;-86
2022/01/21 07:05:02;;;;;;;9.98;3.42;;;1.60;93.30;;;;;;6251899;28;20128;-84
2022/01/21 07:08:04;;;;;;;13.45;3.22;;;1.70;93.30;;;;;;6252975;28;20057;-84
2022/01/21 07:11:06;;;;;;;23.17;4.07;;;1.70;93.50;;;;;;6252111;28;20089;-86
2022/01/21 07:14:09;;;;;;;12.45;4.80;;;1.90;93.40;;;;;;6251600;28;20098;-85
2022/01/21 07:17:12;;;;;;;11.93;3.70;;;2.00;93.30;;;;;;6250723;28;20045;-84
2022/01/21 07:20:15;;;;;;;10.15;3.13;;;1.90;93.00;;;;;;6252370;28;20059;-85
2022/01/21 07:23:17;;;;;;;18.85;4.63;;;2.00;93.30;;;;;;6251743;28;20045;-83
2022/01/21 07:26:18;;;;;;;21.17;3.65;;;2.00;93.40;;;;;;6251418;28;20503;-86
2022/01/21 07:29:22;;;;;;;18.02;3.78;;;2.00;93.30;;;;;;6252372;28;20049;-85
2022/01/21 07:32:23;;;;;;;8.50;4.10;;;2.00;93.20;;;;;;6252309;28;20045;-86
2022/01/21 07:35:25;;;;;;;10.77;3.70;;;2.00;93.30;;;;;;6252168;28;20041;-85
2022/01/21 07:38:27;;;;;;;14.85;3.20;;;2.10;93.40;;;;;;6252032;28;20045;-86
2022/01/21 07:41:29;;;;;;;11.65;3.63;;;2.20;93.60;;;;;;6252261;28;20053;-86
2022/01/21 07:44:32;;;;;;;17.50;3.72;;;2.30;93.60;;;;;;6251685;28;20059;-86
2022/01/21 07:47:34;;;;;;;17.63;4.15;;;2.40;93.80;;;;;;6251572;28;20084;-86
2022/01/21 07:50:37;;;;;;;15.65;4.43;;;2.50;93.30;;;;;;6254396;28;20053;-84
2022/01/21 07:53:39;;;;;;;15.32;4.20;;;2.60;93.30;;;;;;6255585;28;20113;-85
2022/01/21 07:56:41;;;;;;;9.10;3.65;;;2.80;93.30;;;;;;6225359;28;20051;-84
2022/01/21 07:59:44;;;;;;;19.13;4.88;;;2.80;92.80;;;;;;6256331;28;20084;-84
2022/01/21 08:02:47;;;;;;;9.00;3.05;;;3.00;92.90;;;;;;6255289;28;20041;-83
2022/01/21 08:05:48;;;;;;;11.95;3.47;;;3.10;92.90;;;;;;6259055;28;20041;-82
2022/01/21 08:08:50;;;;;;;7.22;3.13;;;3.20;92.90;;;;;;6259439;28;20113;-84
2022/01/21 08:11:53;;;;;;;13.50;4.05;;;3.30;92.70;;;;;;6259534;28;20103;-85
2022/01/21 08:14:56;;;;;;;15.57;4.07;;;3.40;92.70;;;;;;6257694;28;20057;-84
2022/01/21 08:17:58;;;;;;;11.35;5.13;;;3.40;92.30;;;;;;6258499;28;20041;-85
2022/01/21 08:20:59;;;;;;;13.15;4.20;;;3.50;92.50;;;;;;6259164;28;20056;-82
2022/01/21 08:24:03;;;;;;;7.97;3.33;;;3.50;92.40;;;;;;6258564;28;20053;-85
2022/01/21 08:27:05;;;;;;;10.60;3.53;;;3.50;92.10;;;;;;6258372;28;20045;-82
2022/01/21 08:30:11;;;;;;;12.80;3.90;;;3.60;92.00;;;;;;6258054;28;20045;-82
2022/01/21 08:33:13;;;;;;;13.23;3.95;;;3.60;91.80;;;;;;6259040;28;20045;-82
2022/01/21 08:36:15;;;;;;;15.00;3.95;;;3.60;91.50;;;;;;6258435;28;20049;-82
2022/01/21 08:39:17;;;;;;;13.77;4.20;;;3.60;91.80;;;;;;6258980;28;20069;-81
2022/01/21 08:42:19;;;;;;;17.42;3.67;;;3.60;91.90;;;;;;6257678;28;20556;-84
2022/01/21 08:45:23;;;;;;;11.07;3.67;;;3.60;91.50;;;;;;6258151;28;20071;-82
2022/01/21 08:48:25;;;;;;;25.13;4.72;;;3.50;91.50;;;;;;6259155;28;20053;-83
2022/01/21 08:51:36;;;;;;;14.30;4.53;;;3.50;92.00;;;;;;6258303;28;20124;-83
2022/01/21 08:54:38;;;;;;;14.18;5.75;;;3.70;92.00;;;;;;6257521;28;20506;-83
2022/01/21 08:57:42;;;;;;;12.18;5.05;;;4.10;92.10;;;;;;6257988;28;20053;-82
2022/01/21 09:00:45;;;;;;;14.23;4.25;;;4.50;91.50;;;;;;6258056;28;20056;-83
2022/01/21 09:03:47;;;;;;;8.85;4.63;;;4.80;90.40;;;;;;6258272;28;20053;-83
2022/01/21 09:06:49;;;;;;;12.88;3.30;;;5.20;89.80;;;;;;6257992;28;20128;-81
2022/01/21 09:09:50;;;;;;;11.57;4.25;;;5.50;86.90;;;;;;6258118;28;20069;-83
2022/01/21 09:12:52;;;;;;;18.50;4.05;;;5.70;86.00;;;;;;6257626;28;20055;-82
2022/01/21 09:15:58;;;;;;;15.63;4.22;;;5.90;87.70;;;;;;6244242;28;20056;-83
2022/01/21 09:19:02;;;;;;;13.57;3.13;;;6.00;86.10;;;;;;6241651;28;20044;-82
2022/01/21 09:22:05;;;;;;;8.55;3.72;;;6.00;85.60;;;;;;6231866;28;20046;-83
2022/01/21 09:25:08;;;;;;;27.45;15.45;;;5.90;87.40;;;;;;6232104;28;20046;-80
2022/01/21 09:28:10;;;;;;;9.73;5.88;;;6.30;89.20;;;;;;6230234;28;20499;-81
2022/01/21 09:31:14;;;;;;;17.52;10.93;;;6.50;85.80;;;;;;6229810;28;20050;-81
2022/01/21 09:34:16;;;;;;;12.60;2.95;;;6.40;85.10;;;;;;6230042;28;20121;-83
2022/01/21 09:37:18;;;;;;;9.02;3.85;;;6.30;84.30;;;;;;6232696;28;20085;-81
2022/01/21 09:40:21;;;;;;;12.02;3.55;;;6.20;85.60;;;;;;6226273;28;20128;-83
2022/01/21 09:43:23;;;;;;;18.55;5.03;;;6.20;84.40;;;;;;6224717;28;20049;-82
2022/01/21 09:46:33;;;;;;;15.52;3.78;;;6.10;83.70;;;;;;6239467;28;20080;-82
2022/01/21 09:49:35;;;;;;;10.57;3.70;;;5.90;83.40;;;;;;6248449;28;20132;-80
2022/01/21 09:52:38;;;;;;;90.82;29.95;;;5.80;84.30;;;;;;6253922;28;20042;-81
2022/01/21 09:55:40;;;;;;;19.92;6.38;;;5.70;83.50;;;;;;6251030;28;20046;-81
2022/01/21 09:58:45;;;;;;;191.63;47.60;;;5.70;84.50;;;;;;6249429;28;20131;-82
2022/01/21 10:01:51;;;;;;;448.20;112.40;;;5.70;84.80;;;;;;6249379;28;20046;-80
2022/01/21 10:04:53;;;;;;;459.35;128.73;;;5.70;84.00;;;;;;6248993;28;20050;-81
2022/01/21 10:07:56;;;;;;;111.32;30.60;;;5.80;84.70;;;;;;6251752;28;20045;-82
2022/01/21 10:10:58;;;;;;;57.88;17.90;;;5.80;84.60;;;;;;6248854;28;20507;-81
2022/01/21 10:14:00;;;;;;;45.33;10.70;;;5.80;83.90;;;;;;6249248;28;20053;-81
2022/01/21 10:17:04;;;;;;;156.02;42.30;;;5.80;84.30;;;;;;6241235;28;20091;-81
2022/01/21 10:20:13;;;;;;;49.90;14.18;;;5.90;83.90;;;;;;6225674;28;20056;-81
2022/01/21 10:23:20;;;;;;;19.83;4.80;;;5.90;84.00;;;;;;6224685;28;20045;-82
2022/01/21 10:26:23;;;;;;;91.43;27.60;;;6.00;84.90;;;;;;6224991;28;20125;-81
2022/01/21 10:29:34;;;;;;;19.33;7.40;;;6.10;85.30;;;;;;6224606;28;20053;-81
2022/01/21 10:32:41;;;;;;;14.23;3.63;;;6.20;83.90;;;;;;6225686;28;20199;-81
2022/01/21 10:35:46;;;;;;;20.05;7.13;;;6.30;83.20;;;;;;6226602;28;20085;-80
2022/01/21 10:38:51;;;;;;;39.38;15.38;;;6.40;82.50;;;;;;6224171;28;20133;-80
2022/01/21 10:41:53;;;;;;;12.95;3.72;;;6.50;83.70;;;;;;6224477;28;20431;-80
2022/01/21 10:44:55;;;;;;;8.75;3.47;;;6.60;83.30;;;;;;6224789;28;20124;-79
2022/01/21 10:47:58;;;;;;;19.30;4.63;;;6.70;80.00;;;;;;6233033;28;20049;-80
2022/01/21 10:51:17;;;;;;;14.40;5.15;;;6.60;80.20;;;;;;6224592;28;20139;-79
2022/01/21 10:54:22;;;;;;;12.93;3.85;;;6.80;82.10;;;;;;6224911;28;20086;-79
2022/01/21 10:57:25;;;;;;;18.33;5.32;;;7.00;80.40;;;;;;6225620;28;20046;-80
2022/01/21 11:00:26;;;;;;;12.40;3.75;;;7.20;80.30;;;;;;6227067;28;20060;-80
2022/01/21 11:03:30;;;;;;;8.88;3.10;;;7.30;79.30;;;;;;6225290;28;20120;-80
2022/01/21 11:06:45;;;;;;;11.70;4.55;;;7.40;78.20;;;;;;6226003;28;20511;-81
2022/01/21 11:09:46;;;;;;;13.77;3.25;;;7.40;76.90;;;;;;6226100;28;20102;-80
2022/01/21 11:12:48;;;;;;;10.93;3.30;;;7.30;77.40;;;;;;6224988;28;20518;-80
2022/01/21 11:15:53;;;;;;;8.98;2.72;;;7.50;78.30;;;;;;6232275;28;20048;-80
2022/01/21 11:19:07;;;;;;;9.10;2.75;;;7.70;76.10;;;;;;6235810;28;20052;-80
2022/01/21 11:22:08;;;;;;;13.23;3.30;;;7.80;75.10;;;;;;6224339;28;20050;-80
2022/01/21 11:25:11;;;;;;;7.97;2.63;;;8.00;74.50;;;;;;6225175;28;20526;-81
2022/01/21 11:28:14;;;;;;;14.73;4.32;;;8.10;71.60;;;;;;6225375;28;20061;-81
2022/01/21 11:31:18;;;;;;;16.42;3.22;;;8.00;72.40;;;;;;6225500;28;20046;-81
2022/01/21 11:34:21;;;;;;;70.53;20.67;;;8.10;71.80;;;;;;6224726;28;20129;-80
2022/01/21 11:37:25;;;;;;;63.38;22.02;;;8.00;73.20;;;;;;6223666;28;20468;-80
2022/01/21 11:40:27;;;;;;;18.05;6.05;;;8.00;73.50;;;;;;6240018;28;20061;-81
2022/01/21 11:43:30;;;;;;;18.75;3.15;;;8.10;72.20;;;;;;6248776;28;20065;-82
2022/01/21 11:46:48;;;;;;;59.40;20.92;;;8.20;71.30;;;;;;6247309;28;20038;-83
2022/01/21 11:49:57;;;;;;;16.98;4.68;;;8.80;73.10;;;;;;6248112;28;20049;-84
2022/01/21 11:52:59;;;;;;;7.25;2.38;;;9.30;68.80;;;;;;6249744;28;20052;-82
2022/01/21 11:56:00;;;;;;;11.55;4.60;;;9.60;69.50;;;;;;6249218;28;20511;-82
2022/01/21 11:59:16;;;;;;;23.85;7.95;;;10.30;69.70;;;;;;6250909;28;20415;-84
2022/01/21 12:02:21;;;;;;;9.30;2.42;;;10.80;66.20;;;;;;6252459;28;20052;-82
2022/01/21 12:05:27;;;;;;;15.10;2.53;;;11.00;63.40;;;;;;6251554;28;20050;-85
2022/01/21 12:08:46;;;;;;;12.60;4.05;;;11.00;62.00;;;;;;6253190;28;20059;-85
2022/01/21 12:11:57;;;;;;;19.17;7.15;;;11.00;62.30;;;;;;6252856;28;20045;-85
2022/01/21 12:15:03;;;;;;;13.95;3.75;;;11.20;63.90;;;;;;6251483;28;20042;-86
2022/01/21 12:18:08;;;;;;;10.05;3.60;;;11.30;62.30;;;;;;6235732;28;20046;-85
2022/01/21 12:24:54;;;;;;;11.50;3.97;;;11.10;61.90;;;;;;6348661;27;20399;-81
2022/01/21 12:28:11;;;;;;;;;;;10.30;62.50;;;;;;6323776;28;20048;-82
2022/01/21 12:31:17;;;;;;;14.00;2.75;;;10.10;64.80;;;;;;6319353;28;19920;-84
2022/01/21 12:34:19;;;;;;;7.10;1.70;;;10.00;65.80;;;;;;6296081;28;20037;-84
2022/01/21 12:37:25;;;;;;;8.30;2.20;;;9.90;64.00;;;;;;6296402;28;20068;-82
2022/01/21 12:40:38;;;;;;;19.00;5.97;;;9.80;64.50;;;;;;6296107;28;20146;-83
2022/01/21 12:43:46;;;;;;;27.45;6.97;;;9.50;64.40;;;;;;6296085;28;20055;-85
2022/01/21 12:46:52;;;;;;;;;;;9.40;67.20;;;;;;6301915;28;20037;-84
2022/01/21 12:49:56;;;;;;;14.50;4.18;;;9.40;67.50;;;;;;6297797;28;20449;-83
2022/01/21 12:53:16;;;;;;;7.78;1.85;;;9.30;64.50;;;;;;6297513;22;20045;-79
2022/01/21 12:56:20;;;;;;;15.55;3.03;;;9.10;65.70;;;;;;6272474;28;20060;-78
2022/01/21 12:59:23;;;;;;;11.25;3.90;;;8.90;66.90;;;;;;6271292;28;20140;-79
2022/01/21 13:02:27;;;;;;;16.98;3.55;;;8.90;68.20;;;;;;6281359;28;20051;-79
2022/01/21 13:05:37;;;;;;;8.80;2.53;;;8.80;67.60;;;;;;6297460;28;20124;-80
2022/01/21 13:08:43;;;;;;;7.97;2.58;;;8.60;67.60;;;;;;6297227;28;20045;-79
2022/01/21 13:11:56;;;;;;;7.00;2.90;;;8.40;69.50;;;;;;6296263;28;20417;-79
2022/01/21 13:14:57;;;;;;;6.90;1.70;;;8.30;68.20;;;;;;6295053;28;20135;-78
2022/01/21 13:18:00;;;;;;;7.70;2.75;;;8.10;69.60;;;;;;6313637;28;20048;-79
2022/01/21 13:21:06;;;;;;;9.18;2.25;;;8.00;69.50;;;;;;6321694;28;20044;-78
2022/01/21 13:24:21;;;;;;;16.00;2.88;;;8.00;70.50;;;;;;6295951;28;20051;-78
2022/01/21 13:27:25;;;;;;;17.00;4.75;;;8.00;70.60;;;;;;6317437;28;20071;-78
2022/01/21 13:30:29;;;;;;;9.70;2.53;;;7.80;71.60;;;;;;6320141;28;20051;-78
2022/01/21 13:33:31;;;;;;;12.27;2.33;;;7.70;72.30;;;;;;6315267;28;20221;-77
2022/01/21 13:36:44;;;;;;;7.68;2.15;;;7.60;72.80;;;;;;6304259;28;20063;-78
2022/01/21 13:39:48;;;;;;;14.20;2.33;;;7.90;74.10;;;;;;6290810;28;20132;-78
2022/01/21 13:42:51;;;;;;;8.52;2.00;;;8.50;72.40;;;;;;6253565;28;20045;-78
2022/01/21 13:45:56;;;;;;;5.45;1.45;;;9.00;70.20;;;;;;6271907;28;20417;-78
2022/01/21 13:48:58;;;;;;;13.00;2.55;;;9.40;65.70;;;;;;6294509;28;20063;-77
2022/01/21 13:52:02;;;;;;;9.75;3.03;;;9.60;68.30;;;;;;6251327;28;20133;-79
2022/01/21 13:55:05;;;;;;;6.47;2.10;;;9.80;66.40;;;;;;6247968;28;20041;-79
2022/01/21 13:58:11;;;;;;;8.40;2.00;;;9.80;65.80;;;;;;6254543;28;20131;-78
2022/01/21 14:01:21;;;;;;;6.68;1.83;;;9.70;65.90;;;;;;6254451;28;20046;-80
2022/01/21 14:04:23;;;;;;;8.75;2.63;;;9.60;65.10;;;;;;6254027;28;20049;-78
2022/01/21 14:07:27;;;;;;;6.80;2.17;;;9.40;65.10;;;;;;6258600;28;20057;-81
2022/01/21 14:10:31;;;;;;;7.80;2.33;;;9.20;64.90;;;;;;6259609;28;20111;-79
2022/01/21 14:13:36;;;;;;;12.10;1.95;;;9.00;66.10;;;;;;6255153;28;20120;-79
2022/01/21 14:16:42;;;;;;;20.20;2.92;;;8.70;66.30;;;;;;6255827;28;20053;-80
2022/01/21 14:19:44;;;;;;;12.65;2.08;;;8.50;67.80;;;;;;6254100;28;20054;-78
2022/01/21 14:22:47;;;;;;;7.00;1.67;;;8.50;68.70;;;;;;6250351;28;20499;-77
2022/01/21 14:25:52;;;;;;;11.93;1.63;;;8.30;67.50;;;;;;6251897;28;20048;-77
2022/01/21 14:28:57;;;;;;;11.85;3.13;;;8.10;67.90;;;;;;6252559;28;20060;-81
2022/01/21 14:32:01;;;;;;;10.57;2.30;;;7.70;69.60;;;;;;6252821;28;20046;-79
2022/01/21 14:35:12;;;;;;;10.95;2.17;;;7.50;70.50;;;;;;6250990;28;20052;-77
2022/01/21 14:38:14;;;;;;;14.02;2.65;;;7.40;70.20;;;;;;6248453;28;20049;-79
2022/01/21 14:41:17;;;;;;;8.20;1.55;;;7.50;71.00;;;;;;6248890;28;20043;-79
2022/01/21 14:44:33;;;;;;;6.40;1.42;;;7.60;70.70;;;;;;6248551;28;20053;-77
2022/01/21 14:47:34;;;;;;;11.63;2.55;;;7.70;71.50;;;;;;6243171;28;20045;-76
2022/01/21 14:50:37;;;;;;;10.30;2.50;;;7.80;69.40;;;;;;6248084;28;20050;-76
2022/01/21 14:53:42;;;;;;;6.18;1.63;;;7.90;70.00;;;;;;6248286;28;20072;-77
2022/01/21 14:56:58;;;;;;;7.28;3.08;;;7.90;70.00;;;;;;6249646;28;20056;-77
2022/01/21 15:00:05;;;;;;;11.68;2.55;;;8.00;69.90;;;;;;6250397;28;20045;-78
2022/01/21 15:03:26;;;;;;;10.57;2.60;;;7.90;69.40;;;;;;6249329;28;20491;-77
2022/01/21 15:06:31;;;;;;;12.05;2.00;;;7.80;69.30;;;;;;6249040;28;20050;-77
2022/01/21 15:09:32;;;;;;;8.40;2.75;;;7.60;69.30;;;;;;6248456;28;20503;-77
2022/01/21 15:16:08;;;;;;;21.63;2.90;;;7.50;70.20;;;;;;6222785;28;20487;-78
2022/01/21 15:19:13;;;;;;;7.57;1.90;;;7.40;70.20;;;;;;6241639;28;20056;-77
2022/01/21 15:22:20;;;;;;;9.40;3.08;;;7.30;70.80;;;;;;6251104;28;20148;-80
2022/01/21 15:25:22;;;;;;;9.00;2.20;;;7.30;72.00;;;;;;6251258;28;20060;-80
2022/01/21 15:28:23;;;;;;;8.35;2.72;;;7.30;72.00;;;;;;6252242;28;20050;-79
2022/01/21 15:31:27;;;;;;;14.07;2.33;;;7.30;71.60;;;;;;6253137;28;20045;-79
2022/01/21 15:34:29;;;;;;;21.98;2.40;;;7.20;71.60;;;;;;6250802;28;20064;-77
2022/01/21 15:37:30;;;;;;;12.10;2.40;;;7.10;71.90;;;;;;6250805;28;20041;-78
2022/01/21 15:40:34;;;;;;;9.43;2.10;;;7.00;72.80;;;;;;6249844;28;20167;-77
2022/01/21 15:43:36;;;;;;;6.45;2.08;;;6.90;73.10;;;;;;6239904;28;20048;-77
2022/01/21 15:46:39;;;;;;;10.38;2.13;;;6.80;72.70;;;;;;6240380;28;20048;-78
2022/01/21 15:49:41;;;;;;;4.60;1.77;;;6.70;73.10;;;;;;6248826;28;20068;-78
2022/01/21 15:52:43;;;;;;;8.95;2.42;;;6.60;73.40;;;;;;6248547;28;20503;-78
2022/01/21 15:55:45;;;;;;;8.57;2.88;;;6.50;73.60;;;;;;6249353;28;20045;-78
2022/01/21 15:58:47;;;;;;;7.60;2.15;;;6.50;74.40;;;;;;6248168;28;20470;-78
2022/01/21 16:01:50;;;;;;;6.85;1.75;;;6.40;74.30;;;;;;6248389;28;20116;-78
2022/01/21 16:04:52;;;;;;;7.82;2.08;;;6.40;74.00;;;;;;6246895;28;20098;-78
2022/01/21 16:07:55;;;;;;;6.95;2.10;;;6.40;74.20;;;;;;6247314;28;20419;-77
2022/01/21 16:10:57;;;;;;;10.40;2.38;;;6.30;74.30;;;;;;6247066;28;20406;-77
2022/01/21 16:13:59;;;;;;;10.27;2.28;;;6.30;74.50;;;;;;6246775;28;20126;-77
2022/01/21 16:17:02;;;;;;;10.77;2.65;;;6.20;74.70;;;;;;6246224;28;20072;-77
2022/01/21 16:20:05;;;;;;;18.50;2.55;;;6.20;75.00;;;;;;6247333;28;20144;-77
2022/01/21 16:23:07;;;;;;;23.67;4.18;;;6.20;75.10;;;;;;6246414;28;20055;-78
2022/01/21 16:26:08;;;;;;;15.23;4.47;;;6.10;76.00;;;;;;6246603;28;20049;-77
2022/01/21 16:29:10;;;;;;;12.20;2.75;;;6.10;75.50;;;;;;6246839;28;20148;-77
2022/01/21 16:32:14;;;;;;;11.38;3.00;;;6.00;75.50;;;;;;6247331;28;20054;-77
2022/01/21 16:35:16;;;;;;;13.63;3.03;;;6.00;75.80;;;;;;6246368;28;20046;-77
2022/01/21 16:38:18;;;;;;;13.35;3.70;;;6.00;76.40;;;;;;6246880;28;20396;-77
2022/01/21 16:41:20;;;;;;;14.75;3.05;;;6.00;76.20;;;;;;6247090;28;20045;-78
2022/01/21 16:44:22;;;;;;;11.90;3.53;;;6.00;76.10;;;;;;6237605;28;20050;-77